Time;durP1;ratioP1;P1;durP2;ratioP2;P2;SDS_P1;SDS_P2;PMS_P1;PMS_P2;Temp;Humidity;BMP_temperature;BMP_pressure;BME280_temperature;BME280_humidity;BME280_pressure;Samples;Min_cycle;Max_cycle;Signal;HPM_P1;HPM_P2
2024/01/18 00:00:22;;;;;;;26.60;14.30;;;;;;;-5.55;98.30;99611.13;86814;278;137354;-72
2024/01/18 00:02:25;;;;;;;29.30;16.40;;;;;;;-5.49;98.59;99611.42;87205;281;22635;-72
2024/01/18 00:04:27;;;;;;;32.80;16.80;;;;;;;-5.45;98.40;99611.16;86781;266;136497;-72
2024/01/18 00:06:31;;;;;;;32.60;16.00;;;;;;;-5.43;98.40;99603.95;87495;273;22522;-71
2024/01/18 00:08:34;;;;;;;34.10;16.90;;;;;;;-5.44;98.73;99597.25;88320;277;137649;-72
2024/01/18 00:10:37;;;;;;;38.70;19.40;;;;;;;-5.41;98.97;99599.76;87161;278;25302;-73
2024/01/18 00:12:39;;;;;;;34.20;17.80;;;;;;;-5.40;99.14;99579.13;86919;274;137418;-72
2024/01/18 00:14:42;;;;;;;34.20;16.20;;;;;;;-5.37;99.34;99568.88;86858;271;24062;-71
2024/01/18 00:16:44;;;;;;;40.00;19.30;;;;;;;-5.31;99.63;99557.36;87199;278;138205;-73
2024/01/18 00:18:46;;;;;;;44.50;16.50;;;;;;;-5.25;99.63;99557.17;86856;274;22575;-73
2024/01/18 00:20:48;;;;;;;41.40;15.80;;;;;;;-5.18;99.30;99536.89;86703;283;136601;-72
2024/01/18 00:22:50;;;;;;;33.80;17.80;;;;;;;-5.17;99.44;99530.94;86874;281;23456;-72
2024/01/18 00:24:52;;;;;;;25.30;13.50;;;;;;;-5.19;100.00;99509.41;86700;274;136757;-73
2024/01/18 00:26:54;;;;;;;38.40;19.70;;;;;;;-5.14;100.00;99507.66;86931;274;25118;-74
2024/01/18 00:28:56;;;;;;;33.00;18.20;;;;;;;-5.09;100.00;99499.88;87270;275;137894;-73
2024/01/18 00:30:59;;;;;;;36.80;17.70;;;;;;;-5.03;100.00;99493.41;86882;274;24169;-72
2024/01/18 00:33:00;;;;;;;34.20;17.90;;;;;;;-4.94;100.00;99504.85;86609;272;137212;-73
2024/01/18 00:35:03;;;;;;;35.10;17.80;;;;;;;-4.85;99.99;99491.25;86877;282;24011;-73
2024/01/18 00:37:05;;;;;;;33.40;15.10;;;;;;;-4.86;100.00;99492.59;87075;270;136637;-74
2024/01/18 00:39:11;;;;;;;27.80;15.10;;;;;;;-4.95;100.00;99478.29;86994;274;22577;-74
2024/01/18 00:41:13;;;;;;;33.10;16.10;;;;;;;-4.99;100.00;99465.38;86818;282;136346;-74
2024/01/18 00:43:14;;;;;;;37.30;16.40;;;;;;;-5.03;100.00;99458.92;87177;268;25136;-73
2024/01/18 00:45:16;;;;;;;26.20;14.00;;;;;;;-5.02;100.00;99453.66;86906;281;136614;-73
2024/01/18 00:47:19;;;;;;;40.20;18.00;;;;;;;-4.96;100.00;99458.91;87023;274;22576;-73
2024/01/18 00:49:21;;;;;;;29.90;16.00;;;;;;;-4.90;100.00;99435.44;86799;275;136727;-73
2024/01/18 00:51:23;;;;;;;29.30;18.70;;;;;;;-4.85;100.00;99436.66;87066;279;24014;-74
2024/01/18 00:53:25;;;;;;;39.40;20.40;;;;;;;-4.83;100.00;99421.81;87404;269;136843;-74
2024/01/18 00:55:27;;;;;;;35.90;19.50;;;;;;;-4.80;100.00;99417.55;87054;279;22570;-73
2024/01/18 00:57:29;;;;;;;36.60;20.70;;;;;;;-4.74;100.00;99416.45;87029;282;136758;-74
2024/01/18 00:59:31;;;;;;;31.50;17.90;;;;;;;-4.72;100.00;99406.70;86743;283;22577;-73
2024/01/18 01:01:33;;;;;;;41.30;20.30;;;;;;;-4.76;100.00;99395.90;87060;272;137101;-75
2024/01/18 01:03:35;;;;;;;36.20;17.70;;;;;;;-4.70;100.00;99408.82;87063;265;22578;-75
2024/01/18 01:05:37;;;;;;;36.00;17.80;;;;;;;-4.73;100.00;99396.77;87020;274;136645;-73
2024/01/18 01:07:39;;;;;;;29.60;16.80;;;;;;;-4.75;100.00;99389.79;86921;270;25111;-74
2024/01/18 01:09:41;;;;;;;26.80;16.90;;;;;;;-4.74;100.00;99382.11;86819;274;136978;-73
2024/01/18 01:11:43;;;;;;;41.70;17.60;;;;;;;-4.75;100.00;99370.44;86995;274;22670;-75
2024/01/18 01:13:45;;;;;;;26.80;15.00;;;;;;;-4.79;100.00;99356.36;87091;279;136556;-74
2024/01/18 01:15:47;;;;;;;26.00;15.60;;;;;;;-4.80;100.00;99352.59;87088;274;22563;-74
2024/01/18 01:17:50;;;;;;;23.90;14.10;;;;;;;-4.66;100.00;99339.23;87096;280;137167;-74
2024/01/18 01:19:52;;;;;;;28.40;15.60;;;;;;;-4.72;100.00;99334.96;87139;276;22559;-72
2024/01/18 01:21:54;;;;;;;31.20;17.10;;;;;;;-4.67;100.00;99327.34;87062;271;136997;-73
2024/01/18 01:23:56;;;;;;;26.10;15.60;;;;;;;-4.70;100.00;99308.67;87095;271;22574;-72
2024/01/18 01:25:58;;;;;;;25.60;15.20;;;;;;;-4.83;100.00;99300.80;86955;269;137953;-73
2024/01/18 01:28:00;;;;;;;31.50;16.40;;;;;;;-4.56;100.00;99293.55;87237;279;22561;-73
2024/01/18 01:30:02;;;;;;;40.30;19.20;;;;;;;-4.90;100.00;99272.57;87078;267;136733;-74
2024/01/18 01:32:05;;;;;;;35.00;18.00;;;;;;;-5.01;100.00;99276.53;87325;276;137381;-72
2024/01/18 01:34:07;;;;;;;37.20;18.50;;;;;;;-5.05;100.00;99267.79;87133;273;24144;-73
2024/01/18 01:36:09;;;;;;;32.90;16.30;;;;;;;-5.04;100.00;99275.38;87175;280;136984;-73
2024/01/18 01:38:10;;;;;;;28.80;16.10;;;;;;;-4.70;100.00;99268.77;87251;270;22744;-74
2024/01/18 01:40:12;;;;;;;33.60;17.50;;;;;;;-4.49;100.00;99275.70;87165;270;137252;-74
2024/01/18 01:42:14;;;;;;;22.40;13.90;;;;;;;-4.68;100.00;99266.04;87226;266;22530;-73
2024/01/18 01:44:16;;;;;;;23.20;15.30;;;;;;;-4.73;100.00;99258.79;86929;268;138035;-72
2024/01/18 01:46:19;;;;;;;25.90;16.20;;;;;;;-4.54;100.00;99274.48;87306;266;22595;-72
2024/01/18 01:48:21;;;;;;;25.80;16.70;;;;;;;-4.44;100.00;99261.11;87023;270;137427;-71
2024/01/18 01:50:23;;;;;;;28.70;15.90;;;;;;;-4.34;100.00;99238.60;87333;267;25244;-72
2024/01/18 01:52:28;;;;;;;26.10;15.10;;;;;;;-4.72;100.00;99257.66;87145;266;137409;-73
2024/01/18 01:54:32;;;;;;;30.50;17.20;;;;;;;-4.89;100.00;99250.64;87170;280;22787;-73
2024/01/18 01:56:36;;;;;;;23.00;14.40;;;;;;;-4.92;100.00;99253.30;87196;272;137228;-72
2024/01/18 01:58:38;;;;;;;33.00;17.30;;;;;;;-5.01;100.00;99234.05;87812;275;24020;-73
2024/01/18 02:00:40;;;;;;;25.50;15.30;;;;;;;-4.92;100.00;99220.89;87253;270;137431;-72
2024/01/18 02:02:43;;;;;;;33.10;17.30;;;;;;;-4.96;100.00;99226.06;87699;266;22564;-72
2024/01/18 02:04:45;;;;;;;30.20;19.70;;;;;;;-4.99;100.00;99212.26;87226;274;137317;-73
2024/01/18 02:06:51;;;;;;;40.40;18.90;;;;;;;-4.96;100.00;99194.67;87136;272;22571;-72
2024/01/18 02:08:53;;;;;;;34.30;19.50;;;;;;;-4.86;100.00;99192.24;87013;280;137199;-73
2024/01/18 02:10:55;;;;;;;27.40;16.70;;;;;;;-4.88;100.00;99172.43;87106;267;22550;-72
2024/01/18 02:12:58;;;;;;;25.40;15.70;;;;;;;-4.91;100.00;99172.80;87103;279;137217;-73
2024/01/18 02:15:01;;;;;;;42.80;20.90;;;;;;;-4.88;100.00;99175.86;87240;275;22583;-73
2024/01/18 02:17:06;;;;;;;26.30;15.10;;;;;;;-4.91;100.00;99159.33;87062;279;137280;-72
2024/01/18 02:19:08;;;;;;;39.50;20.20;;;;;;;-4.92;100.00;99159.05;87374;275;26144;-73
2024/01/18 02:21:10;;;;;;;27.10;17.00;;;;;;;-4.83;100.00;99149.52;87366;279;136929;-73
2024/01/18 02:23:12;;;;;;;28.60;15.60;;;;;;;-4.83;100.00;99148.14;87487;271;22565;-71
2024/01/18 02:25:27;;;;;;;28.70;16.80;;;;;;;-4.83;100.00;99139.66;88209;268;137217;-71
2024/01/18 02:27:29;;;;;;;37.70;20.30;;;;;;;-4.91;100.00;99135.17;87503;279;24078;-72
2024/01/18 02:29:32;;;;;;;33.10;19.90;;;;;;;-4.90;100.00;99123.15;87350;272;137286;-72
2024/01/18 02:31:33;;;;;;;33.70;17.40;;;;;;;-4.89;100.00;99118.45;87256;275;24125;-71
2024/01/18 02:33:35;;;;;;;31.60;19.20;;;;;;;-4.88;100.00;99099.85;87239;279;137288;-71
2024/01/18 02:35:37;;;;;;;42.40;19.00;;;;;;;-4.84;100.00;99093.33;87277;275;22567;-72
2024/01/18 02:37:40;;;;;;;34.20;18.90;;;;;;;-4.75;100.00;99098.27;87037;272;137412;-73
2024/01/18 02:39:42;;;;;;;30.60;16.70;;;;;;;-4.74;100.00;99078.41;87349;271;24097;-71
2024/01/18 02:41:44;;;;;;;26.90;17.50;;;;;;;-4.81;100.00;99073.80;87289;274;137236;-71
2024/01/18 02:43:46;;;;;;;30.50;19.80;;;;;;;-4.78;100.00;99061.94;87243;270;22617;-74
2024/01/18 02:45:48;;;;;;;28.40;16.90;;;;;;;-4.75;100.00;99051.84;87187;275;138869;-73
2024/01/18 02:47:50;;;;;;;36.40;20.90;;;;;;;-4.67;100.00;99035.95;87106;272;22732;-72
2024/01/18 02:49:52;;;;;;;34.90;19.60;;;;;;;-4.55;100.00;99035.16;87270;271;138694;-72
2024/01/18 02:51:55;;;;;;;31.80;19.20;;;;;;;-4.41;100.00;99018.27;87432;271;23007;-71
2024/01/18 02:53:57;;;;;;;37.40;18.80;;;;;;;-4.41;100.00;99014.95;87116;279;137051;-72
2024/01/18 02:55:59;;;;;;;34.80;19.60;;;;;;;-4.37;100.00;99005.96;87296;278;24020;-73
2024/01/18 02:58:01;;;;;;;32.60;21.80;;;;;;;-4.35;100.00;99000.73;87206;270;136864;-72
2024/01/18 03:00:04;;;;;;;29.10;17.20;;;;;;;-4.26;100.00;98996.21;87180;279;137521;-71
2024/01/18 03:02:06;;;;;;;42.20;23.10;;;;;;;-4.23;100.00;99002.06;87236;279;24784;-70
2024/01/18 03:04:11;;;;;;;36.20;18.90;;;;;;;-4.16;100.00;99002.50;87201;272;137504;-74
2024/01/18 03:06:13;;;;;;;28.80;20.30;;;;;;;-4.15;100.00;98991.30;87172;267;22559;-73
2024/01/18 03:08:15;;;;;;;29.70;18.60;;;;;;;-4.06;100.00;98991.08;87533;279;137318;-71
2024/01/18 03:10:18;;;;;;;27.40;17.20;;;;;;;-4.00;100.00;98993.53;87166;280;22567;-70
2024/01/18 03:12:20;;;;;;;32.30;17.00;;;;;;;-3.96;100.00;98990.92;87158;271;137279;-72
2024/01/18 03:14:23;;;;;;;27.70;17.70;;;;;;;-3.94;100.00;98986.25;87278;268;22571;-72
2024/01/18 03:16:25;;;;;;;27.40;17.20;;;;;;;-3.84;100.00;98979.55;87158;271;137065;-72
2024/01/18 03:18:26;;;;;;;24.80;15.80;;;;;;;-3.78;100.00;98975.75;87200;272;22559;-71
2024/01/18 03:20:28;;;;;;;27.30;17.70;;;;;;;-3.76;100.00;98975.73;87148;267;137062;-73
2024/01/18 03:22:30;;;;;;;28.20;17.80;;;;;;;-3.70;100.00;98975.37;87277;275;22571;-73
2024/01/18 03:24:32;;;;;;;27.30;15.70;;;;;;;-3.66;100.00;98972.97;87169;275;137589;-74
2024/01/18 03:26:34;;;;;;;22.90;15.70;;;;;;;-3.60;100.00;98964.66;87356;271;22650;-71
2024/01/18 03:28:37;;;;;;;25.90;17.10;;;;;;;-3.46;100.00;98953.52;87146;280;137078;-72
2024/01/18 03:30:40;;;;;;;25.40;16.60;;;;;;;-3.36;100.00;98957.53;87275;271;22579;-73
2024/01/18 03:32:42;;;;;;;26.90;17.30;;;;;;;-3.37;100.00;98951.73;87154;273;137006;-74
2024/01/18 03:34:44;;;;;;;29.00;15.40;;;;;;;-3.34;100.00;98959.27;87297;267;23895;-72
2024/01/18 03:36:46;;;;;;;23.30;15.90;;;;;;;-3.29;100.00;98944.98;87020;280;136866;-72
2024/01/18 03:38:48;;;;;;;22.30;16.60;;;;;;;-3.26;100.00;98936.73;87155;271;23736;-72
2024/01/18 03:40:50;;;;;;;28.70;16.30;;;;;;;-3.14;100.00;98928.16;87104;268;137406;-73
2024/01/18 03:42:52;;;;;;;30.50;16.80;;;;;;;-3.08;100.00;98911.49;87273;275;23065;-73
2024/01/18 03:44:53;;;;;;;26.90;19.00;;;;;;;-3.02;100.00;98910.08;87256;271;137602;-72
2024/01/18 03:46:55;;;;;;;29.40;16.50;;;;;;;-2.97;100.00;98900.39;87320;274;22606;-73
2024/01/18 03:48:57;;;;;;;29.00;17.70;;;;;;;-2.89;100.00;98906.88;87276;270;137632;-74
2024/01/18 03:50:59;;;;;;;26.70;19.00;;;;;;;-2.85;100.00;98902.82;87214;262;23554;-72
2024/01/18 03:53:02;;;;;;;25.10;18.00;;;;;;;-2.83;100.00;98894.73;87079;271;137693;-74
2024/01/18 03:55:05;;;;;;;23.60;15.70;;;;;;;-2.82;100.00;98888.46;87203;268;25220;-73
2024/01/18 03:57:07;;;;;;;21.60;15.10;;;;;;;-2.83;100.00;98885.45;87094;271;136978;-73
2024/01/18 03:59:09;;;;;;;27.40;18.10;;;;;;;-2.83;100.00;98877.67;87299;278;24000;-71
2024/01/18 04:01:10;;;;;;;26.80;18.10;;;;;;;-2.81;100.00;98877.06;87047;273;137549;-71
2024/01/18 04:03:15;;;;;;;31.40;18.70;;;;;;;-2.70;100.00;98870.39;87091;273;22556;-71
2024/01/18 04:05:17;;;;;;;32.70;18.00;;;;;;;-2.64;100.00;98859.40;87023;266;137458;-71
2024/01/18 04:07:19;;;;;;;28.20;17.80;;;;;;;-2.58;100.00;98859.02;87240;270;22555;-71
2024/01/18 04:09:21;;;;;;;27.40;18.40;;;;;;;-2.56;100.00;98847.01;87094;272;137615;-73
2024/01/18 04:11:23;;;;;;;27.60;17.90;;;;;;;-2.51;100.00;98853.68;87143;268;25338;-71
2024/01/18 04:13:26;;;;;;;27.10;18.30;;;;;;;-2.48;100.00;98850.66;86925;271;137403;-73
2024/01/18 04:15:28;;;;;;;30.30;20.30;;;;;;;-2.42;100.00;98850.64;87266;274;22600;-71
2024/01/18 04:17:30;;;;;;;30.70;20.00;;;;;;;-2.33;100.00;98846.98;87126;278;137692;-71
2024/01/18 04:19:32;;;;;;;24.90;17.40;;;;;;;-2.25;100.00;98834.38;87145;271;22575;-73
2024/01/18 04:21:34;;;;;;;31.20;17.80;;;;;;;-2.22;100.00;98839.20;86989;272;137412;-72
2024/01/18 04:23:36;;;;;;;25.60;16.00;;;;;;;-2.17;100.00;98838.84;86968;272;22850;-71
2024/01/18 04:25:38;;;;;;;30.30;18.60;;;;;;;-2.11;100.00;98825.94;87016;277;137528;-72
2024/01/18 04:27:40;;;;;;;29.40;20.80;;;;;;;-2.06;100.00;98823.19;87056;279;24036;-72
2024/01/18 04:29:42;;;;;;;32.40;19.50;;;;;;;-2.01;100.00;98828.54;87182;277;137881;-73
2024/01/18 04:31:44;;;;;;;29.20;18.30;;;;;;;-2.00;100.00;98824.56;87297;270;26307;-72
2024/01/18 04:33:45;;;;;;;26.60;17.20;;;;;;;-1.95;100.00;98815.91;87188;273;137992;-73
2024/01/18 04:35:47;;;;;;;29.80;18.40;;;;;;;-1.90;100.00;98806.38;87551;270;23525;-71
2024/01/18 04:37:49;;;;;;;29.70;19.40;;;;;;;-1.85;100.00;98804.33;87818;271;139141;-72
2024/01/18 04:39:52;;;;;;;28.30;21.30;;;;;;;-1.76;100.00;98804.90;88158;276;22563;-70
2024/01/18 04:41:54;;;;;;;26.90;18.70;;;;;;;-1.66;100.00;98802.00;87556;268;137160;-72
2024/01/18 04:43:55;;;;;;;30.50;20.40;;;;;;;-1.58;100.00;98806.45;87243;279;22574;-71
2024/01/18 04:45:57;;;;;;;31.60;21.30;;;;;;;-1.49;100.00;98808.29;87299;270;136904;-72
2024/01/18 04:47:59;;;;;;;34.40;22.20;;;;;;;-1.45;100.00;98804.52;87317;278;22581;-73
2024/01/18 04:50:03;;;;;;;31.70;23.10;;;;;;;-1.44;100.00;98796.98;87035;273;136356;-71
2024/01/18 04:52:05;;;;;;;30.90;20.20;;;;;;;-1.45;100.00;98793.77;87207;268;138409;-73
2024/01/18 04:54:07;;;;;;;34.60;22.30;;;;;;;-1.36;100.00;98793.00;87336;277;25332;-72
2024/01/18 04:56:10;;;;;;;33.70;21.90;;;;;;;-1.23;100.00;98799.39;87195;277;137469;-71
2024/01/18 04:58:12;;;;;;;34.80;22.50;;;;;;;-1.15;100.00;98794.45;87144;271;22784;-72
2024/01/18 05:00:14;;;;;;;35.20;23.40;;;;;;;-1.05;100.00;98786.98;87141;279;136976;-73
2024/01/18 05:02:16;;;;;;;32.50;23.10;;;;;;;-0.97;100.00;98786.98;87331;279;25281;-71
2024/01/18 05:04:19;;;;;;;32.00;22.60;;;;;;;-0.92;100.00;98772.81;87043;270;137451;-71
2024/01/18 05:06:21;;;;;;;38.50;23.70;;;;;;;-0.84;100.00;98767.52;87585;274;22628;-72
2024/01/18 05:08:23;;;;;;;36.70;20.80;;;;;;;-0.74;100.00;98761.09;87258;270;137818;-71
2024/01/18 05:10:26;;;;;;;38.00;22.90;;;;;;;-0.66;100.00;98749.33;87446;271;22569;-72
2024/01/18 05:12:28;;;;;;;31.20;22.10;;;;;;;-0.54;100.00;98755.61;87256;270;138211;-70
2024/01/18 05:14:29;;;;;;;33.20;21.90;;;;;;;-0.51;100.00;98746.01;87349;266;26107;-71
2024/01/18 05:16:38;;;;;;;31.60;21.00;;;;;;;-0.44;100.00;98736.55;87187;270;137291;-72
2024/01/18 05:18:40;;;;;;;39.90;25.20;;;;;;;-0.38;100.00;98719.59;87645;270;23765;-74
2024/01/18 05:20:41;;;;;;;37.70;26.60;;;;;;;-0.38;100.00;98707.55;88235;275;137122;-83
2024/01/18 05:22:43;;;;;;;36.20;24.30;;;;;;;-0.29;100.00;98697.55;88361;279;22563;-86
2024/01/18 05:24:45;;;;;;;32.50;22.00;;;;;;;-0.15;100.00;98694.40;88299;269;136860;-84
2024/01/18 05:26:47;;;;;;;31.20;22.50;;;;;;;-0.09;100.00;98687.48;88122;279;23166;-86
2024/01/18 05:28:49;;;;;;;33.80;20.70;;;;;;;0.02;100.00;98696.44;87782;278;137731;-73
2024/01/18 05:30:51;;;;;;;37.90;24.10;;;;;;;0.02;100.00;98704.95;87015;280;22565;-74
2024/01/18 05:32:53;;;;;;;37.30;26.10;;;;;;;0.11;100.00;98701.76;87331;271;137254;-74
2024/01/18 05:34:54;;;;;;;31.90;21.50;;;;;;;0.22;100.00;98699.94;87302;274;22613;-73
2024/01/18 05:36:56;;;;;;;35.40;24.80;;;;;;;0.45;100.00;98681.59;87514;266;137105;-75
2024/01/18 05:38:58;;;;;;;30.50;22.00;;;;;;;0.27;100.00;98683.83;86761;275;22698;-73
2024/01/18 05:41:00;;;;;;;31.90;23.10;;;;;;;0.37;100.00;98675.23;87195;267;136838;-75
2024/01/18 05:43:02;;;;;;;31.00;22.30;;;;;;;0.38;100.00;98664.89;87461;269;22566;-74
2024/01/18 05:45:06;;;;;;;36.50;22.00;;;;;;;0.42;100.00;98670.40;87435;270;138082;-72
2024/01/18 05:47:08;;;;;;;34.80;22.50;;;;;;;0.43;100.00;98656.83;87695;277;22573;-72
2024/01/18 05:49:10;;;;;;;26.70;18.60;;;;;;;0.72;100.00;98648.61;87475;277;137351;-71
2024/01/18 05:51:12;;;;;;;27.10;17.50;;;;;;;0.51;100.00;98651.95;87169;273;22567;-71
2024/01/18 05:53:14;;;;;;;36.50;17.90;;;;;;;0.54;100.00;98654.64;87060;279;136912;-71
2024/01/18 05:55:16;;;;;;;26.40;17.30;;;;;;;0.57;100.00;98652.73;87016;273;24120;-74
2024/01/18 05:57:18;;;;;;;24.00;17.70;;;;;;;0.66;100.00;98648.63;86968;272;137798;-73
2024/01/18 05:59:20;;;;;;;27.50;17.10;;;;;;;0.70;100.00;98642.59;89631;268;22575;-72
2024/01/18 06:01:21;;;;;;;24.30;16.90;;;;;;;0.78;100.00;98645.35;87008;271;137128;-72
2024/01/18 06:03:24;;;;;;;26.80;17.20;;;;;;;0.96;100.00;98640.89;87130;272;23291;-72
2024/01/18 06:05:26;;;;;;;22.10;15.30;;;;;;;1.16;100.00;98647.81;86966;272;137196;-72
2024/01/18 06:07:28;;;;;;;21.00;14.10;;;;;;;1.10;100.00;98655.55;87147;268;24065;-73
2024/01/18 06:09:30;;;;;;;24.80;14.70;;;;;;;1.17;100.00;98645.67;87105;272;136772;-74
2024/01/18 06:11:32;;;;;;;22.10;14.30;;;;;;;1.22;100.00;98644.61;87277;264;22633;-75
2024/01/18 06:13:39;;;;;;;23.50;13.50;;;;;;;1.23;100.00;98641.33;87095;276;137094;-70
2024/01/18 06:15:41;;;;;;;25.20;12.80;;;;;;;1.29;100.00;98630.35;87133;273;24152;-72
2024/01/18 06:17:43;;;;;;;17.40;12.90;;;;;;;1.38;100.00;98626.20;87148;272;138042;-71
2024/01/18 06:19:45;;;;;;;19.60;15.10;;;;;;;1.52;100.00;98612.52;87196;272;22561;-71
2024/01/18 06:21:47;;;;;;;19.70;13.00;;;;;;;1.55;100.00;98599.41;87026;280;138010;-72
2024/01/18 06:23:50;;;;;;;19.10;11.90;;;;;;;1.68;100.00;98594.95;87114;281;22580;-75
2024/01/18 06:25:52;;;;;;;17.70;12.40;;;;;;;1.77;100.00;98597.30;87078;267;137232;-70
2024/01/18 06:27:53;;;;;;;17.60;13.70;;;;;;;1.83;100.00;98587.30;87139;279;24013;-71
2024/01/18 06:29:55;;;;;;;21.40;13.20;;;;;;;1.91;100.00;98590.44;87022;275;138073;-70
2024/01/18 06:31:57;;;;;;;22.00;13.50;;;;;;;2.02;100.00;98597.75;87152;276;22572;-75
2024/01/18 06:33:59;;;;;;;21.80;12.30;;;;;;;2.12;100.00;98593.27;87182;272;136904;-72
2024/01/18 06:36:02;;;;;;;16.10;11.60;;;;;;;2.19;100.00;98578.49;87285;267;22578;-72
2024/01/18 06:38:04;;;;;;;17.30;14.00;;;;;;;2.26;100.00;98578.16;87209;270;22584;-73
2024/01/18 06:40:08;;;;;;;17.50;11.60;;;;;;;2.32;100.00;98573.45;87191;271;137320;-74
2024/01/18 06:42:12;;;;;;;14.40;11.40;;;;;;;2.39;100.00;98576.74;87271;272;22562;-74
2024/01/18 06:44:14;;;;;;;15.80;10.60;;;;;;;2.44;100.00;98574.55;87267;272;137100;-75
2024/01/18 06:46:17;;;;;;;13.60;11.30;;;;;;;2.51;100.00;98567.38;86784;279;549668;-72
2024/01/18 06:48:19;;;;;;;13.40;9.80;;;;;;;2.58;100.00;98571.68;86989;280;137371;-73
2024/01/18 06:50:22;;;;;;;14.80;11.90;;;;;;;2.66;100.00;98569.10;87118;273;23355;-72
2024/01/18 06:52:24;;;;;;;16.30;10.90;;;;;;;2.73;100.00;98565.05;87007;268;137095;-70
2024/01/18 06:54:26;;;;;;;13.30;11.10;;;;;;;2.75;100.00;98559.11;87159;268;22542;-71
2024/01/18 06:56:28;;;;;;;15.80;10.80;;;;;;;2.74;100.00;98566.13;87528;265;136720;-70
2024/01/18 06:58:30;;;;;;;14.00;12.50;;;;;;;2.80;100.00;98565.89;88366;271;25198;-71
2024/01/18 07:00:33;;;;;;;17.70;11.50;;;;;;;2.98;100.00;98571.35;88107;276;137247;-69
2024/01/18 07:02:35;;;;;;;11.90;9.70;;;;;;;3.05;100.00;98572.61;87575;267;22612;-72
2024/01/18 07:04:37;;;;;;;11.90;10.00;;;;;;;3.08;100.00;98569.98;87169;267;138309;-72
2024/01/18 07:06:39;;;;;;;13.60;10.80;;;;;;;3.12;100.00;98575.09;87238;275;22574;-73
2024/01/18 07:08:41;;;;;;;12.50;10.10;;;;;;;3.13;100.00;98564.09;87094;272;137718;-74
2024/01/18 07:10:48;;;;;;;11.70;9.20;;;;;;;3.21;100.00;98558.67;86994;272;24072;-73
2024/01/18 07:12:50;;;;;;;;;;;;;;;3.22;100.00;98570.83;87042;273;136593;-72
2024/01/18 07:14:52;;;;;;;12.20;10.60;;;;;;;3.20;100.00;98565.05;87089;273;23770;-72
2024/01/18 07:16:55;;;;;;;12.90;10.70;;;;;;;3.22;100.00;98563.71;87002;272;136997;-71
2024/01/18 07:18:56;;;;;;;11.70;10.20;;;;;;;3.24;100.00;98557.53;87227;278;22575;-72
2024/01/18 07:20:59;;;;;;;14.20;10.90;;;;;;;3.29;100.00;98561.09;87051;280;136766;-73
2024/01/18 07:23:01;;;;;;;11.00;9.50;;;;;;;3.36;100.00;98557.91;87046;267;24058;-71
2024/01/18 07:25:05;;;;;;;11.80;10.20;;;;;;;3.36;100.00;98555.64;87035;271;136718;-71
2024/01/18 07:27:09;;;;;;;13.20;10.70;;;;;;;3.43;100.00;98555.61;87132;272;22496;-72
2024/01/18 07:29:11;;;;;;;13.70;10.60;;;;;;;3.39;100.00;98548.87;86965;264;136970;-72
2024/01/18 07:31:14;;;;;;;11.80;10.20;;;;;;;3.43;100.00;98546.45;87021;275;22556;-71
2024/01/18 07:33:17;;;;;;;13.20;10.20;;;;;;;3.44;100.00;98543.66;87473;270;141058;-73
2024/01/18 07:35:19;;;;;;;13.10;9.50;;;;;;;3.47;100.00;98535.29;86953;269;23947;-69
2024/01/18 07:37:21;;;;;;;13.30;10.60;;;;;;;3.46;100.00;98537.11;87070;271;138398;-72
2024/01/18 07:39:23;;;;;;;13.80;10.80;;;;;;;3.47;100.00;98529.92;87126;271;22562;-70
2024/01/18 07:41:25;;;;;;;12.00;9.80;;;;;;;3.49;100.00;98534.27;87086;270;137092;-74
2024/01/18 07:43:27;;;;;;;15.40;10.80;;;;;;;3.51;100.00;98524.40;87388;271;22562;-74
2024/01/18 07:45:29;;;;;;;16.30;9.90;;;;;;;3.58;100.00;98521.27;87200;270;138171;-73
2024/01/18 07:47:30;;;;;;;12.10;10.60;;;;;;;3.52;100.00;98519.05;87548;279;24001;-75
2024/01/18 07:49:32;;;;;;;11.70;10.10;;;;;;;3.55;100.00;98503.23;87239;277;137546;-73
2024/01/18 07:51:34;;;;;;;13.80;10.60;;;;;;;3.56;100.00;98512.25;87584;272;22564;-72
2024/01/18 07:53:36;;;;;;;13.40;10.80;;;;;;;3.55;100.00;98508.63;87564;270;137688;-76
2024/01/18 07:55:38;;;;;;;12.80;10.20;;;;;;;3.57;100.00;98512.46;87547;271;22592;-71
2024/01/18 07:57:39;;;;;;;10.80;9.60;;;;;;;3.60;100.00;98510.87;87515;271;137662;-72
2024/01/18 07:59:42;;;;;;;12.80;11.00;;;;;;;3.63;100.00;98500.45;87513;274;22583;-75
2024/01/18 08:01:45;;;;;;;12.00;10.80;;;;;;;3.67;100.00;98499.66;87590;266;137961;-74
2024/01/18 08:03:47;;;;;;;11.60;10.30;;;;;;;3.74;100.00;98491.97;87592;277;24023;-80
2024/01/18 08:05:49;;;;;;;11.70;10.40;;;;;;;3.71;100.00;98501.27;87265;269;136761;-75
2024/01/18 08:07:51;;;;;;;8.40;7.60;;;;;;;3.75;100.00;98488.50;87605;278;22500;-72
2024/01/18 08:09:52;;;;;;;10.70;9.70;;;;;;;3.76;100.00;98489.23;87482;278;136562;-75
2024/01/18 08:11:54;;;;;;;14.70;11.00;;;;;;;3.79;100.00;98494.01;87532;272;24023;-72
2024/01/18 08:13:56;;;;;;;10.60;9.30;;;;;;;3.78;100.00;98489.47;87376;273;136746;-73
2024/01/18 08:15:58;;;;;;;12.70;10.40;;;;;;;3.81;100.00;98495.48;87567;278;24048;-79
2024/01/18 08:18:00;;;;;;;11.90;10.30;;;;;;;3.81;100.00;98495.83;87479;271;137906;-76
2024/01/18 08:20:12;;;;;;;14.60;10.80;;;;;;;3.83;100.00;98503.27;87746;271;22562;-74
2024/01/18 08:22:16;;;;;;;12.70;10.60;;;;;;;3.82;100.00;98501.46;87438;271;22660;-76
2024/01/18 08:24:18;;;;;;;11.50;9.90;;;;;;;3.90;100.00;98495.77;87459;270;137023;-79
2024/01/18 08:26:23;;;;;;;13.80;10.60;;;;;;;3.88;100.00;98495.15;87475;267;25109;-75
2024/01/18 08:28:25;;;;;;;11.20;10.00;;;;;;;3.86;100.00;98487.79;87401;279;137889;-75
2024/01/18 08:30:27;;;;;;;13.60;10.80;;;;;;;3.85;100.00;98477.33;87556;275;25185;-73
2024/01/18 08:32:31;;;;;;;13.50;10.90;;;;;;;3.89;100.00;98479.94;87488;269;136675;-79
2024/01/18 08:34:35;;;;;;;12.20;10.10;;;;;;;3.86;100.00;98478.30;87798;280;22575;-75
2024/01/18 08:36:37;;;;;;;13.50;10.60;;;;;;;3.92;100.00;98479.35;87503;273;136689;-79
2024/01/18 08:38:39;;;;;;;10.70;9.60;;;;;;;3.95;100.00;98474.77;87924;276;22558;-75
2024/01/18 08:40:40;;;;;;;11.30;10.20;;;;;;;4.01;100.00;98474.48;87755;275;136576;-73
2024/01/18 08:42:45;;;;;;;13.10;10.90;;;;;;;4.04;100.00;98472.96;87506;280;25177;-80
2024/01/18 08:44:47;;;;;;;13.20;10.50;;;;;;;4.12;100.00;98475.62;87435;272;137659;-77
2024/01/18 08:46:49;;;;;;;13.30;12.00;;;;;;;4.17;100.00;98472.73;87510;267;22558;-74
2024/01/18 08:48:51;;;;;;;14.10;11.80;;;;;;;4.13;100.00;98461.66;87266;272;137932;-77
2024/01/18 08:50:53;;;;;;;13.30;11.20;;;;;;;4.11;100.00;98461.73;87463;271;22557;-79
2024/01/18 08:52:56;;;;;;;11.60;10.60;;;;;;;4.11;100.00;98462.95;87560;276;136843;-74
2024/01/18 08:54:58;;;;;;;12.10;10.70;;;;;;;4.22;100.00;98458.89;87393;268;23344;-74
2024/01/18 08:57:00;;;;;;;12.10;10.10;;;;;;;4.24;100.00;98459.88;87345;278;138428;-75
2024/01/18 08:59:02;;;;;;;11.10;9.90;;;;;;;4.17;100.00;98450.70;87608;279;25124;-77
2024/01/18 09:01:04;;;;;;;10.80;9.70;;;;;;;4.16;100.00;98453.20;87487;267;140609;-74
2024/01/18 09:03:07;;;;;;;15.60;10.80;;;;;;;4.17;100.00;98454.64;87755;277;25313;-76
2024/01/18 09:05:09;;;;;;;14.60;11.00;;;;;;;4.33;100.00;98461.05;87783;267;138642;-75
2024/01/18 09:07:11;;;;;;;15.60;11.20;;;;;;;4.26;100.00;98459.44;87646;277;22539;-74
2024/01/18 09:09:13;;;;;;;9.40;8.50;;;;;;;4.36;100.00;98452.23;87561;267;136924;-79
2024/01/18 09:11:15;;;;;;;11.70;9.90;;;;;;;4.41;100.00;98456.16;87650;278;22559;-74
2024/01/18 09:13:17;;;;;;;15.10;12.10;;;;;;;4.41;100.00;98452.67;87616;275;136009;-76
2024/01/18 09:15:22;;;;;;;12.00;10.80;;;;;;;4.39;100.00;98449.90;87881;267;22567;-78
2024/01/18 09:17:23;;;;;;;14.20;11.20;;;;;;;4.46;100.00;98444.09;87882;271;136371;-74
2024/01/18 09:19:26;;;;;;;16.90;12.20;;;;;;;4.58;100.00;98441.75;87633;269;24084;-74
2024/01/18 09:21:27;;;;;;;12.60;9.80;;;;;;;4.55;100.00;98439.06;87508;267;137044;-75